createdAt,value
2023-02-09T00:02:17.685Z,-5.50
2023-02-09T00:04:44.443Z,-5.50
2023-02-09T00:07:11.062Z,-5.50
2023-02-09T00:09:37.708Z,-5.50
2023-02-09T00:12:23.021Z,-5.40
2023-02-09T00:14:49.700Z,-5.50
2023-02-09T00:17:16.384Z,-5.40
2023-02-09T00:19:42.997Z,-5.40
2023-02-09T00:22:09.654Z,-5.50
2023-02-09T00:24:36.676Z,-5.40
2023-02-09T00:27:03.445Z,-7.20
2023-02-09T00:29:30.154Z,-5.60
2023-02-09T00:31:56.812Z,-5.60
2023-02-09T00:34:23.528Z,-4.90
2023-02-09T00:36:50.187Z,-5.80
2023-02-09T00:39:16.870Z,-5.90
2023-02-09T00:42:02.218Z,-6.00
2023-02-09T00:44:28.850Z,-6.10
2023-02-09T00:46:55.527Z,-6.10
2023-02-09T00:49:22.156Z,-6.10
2023-02-09T00:51:48.844Z,-3.70
2023-02-09T00:54:16.994Z,-6.20
2023-02-09T00:56:43.916Z,-6.20
2023-02-09T00:59:10.974Z,-6.20
2023-02-09T01:01:37.726Z,-6.10
2023-02-09T01:04:04.778Z,-6.20
2023-02-09T01:06:31.669Z,-6.10
2023-02-09T01:08:58.345Z,-6.10
2023-02-09T01:11:28.165Z,-6.10
2023-02-09T01:13:56.227Z,-2.50
2023-02-09T01:16:23.424Z,-6.00
2023-02-09T01:18:50.119Z,-6.00
2023-02-09T01:21:18.061Z,-6.00
2023-02-09T01:23:44.911Z,-6.00
2023-02-09T01:26:12.166Z,-6.10
2023-02-09T01:28:39.635Z,-6.40
2023-02-09T01:31:17.135Z,-5.80
2023-02-09T01:33:43.839Z,-5.70
2023-02-09T01:36:10.626Z,-5.50
2023-02-09T01:38:37.251Z,-5.50
2023-02-09T01:41:03.918Z,-5.40
2023-02-09T01:43:47.528Z,-2.70
2023-02-09T01:46:14.133Z,-5.50
2023-02-09T01:48:41.334Z,-5.60
2023-02-09T01:51:08.023Z,-5.80
2023-02-09T01:53:34.768Z,-5.90
2023-02-09T01:56:06.957Z,-6.00
2023-02-09T01:58:34.157Z,-6.10
2023-02-09T02:01:01.023Z,-6.10
2023-02-09T02:03:28.424Z,-6.10
2023-02-09T02:06:24.623Z,-6.10
2023-02-09T02:09:17.718Z,-6.10
2023-02-09T02:11:47.421Z,-6.10
2023-02-09T02:14:36.643Z,-3.80
2023-02-09T02:17:06.443Z,-6.10
2023-02-09T02:19:42.660Z,-6.10
2023-02-09T02:22:12.398Z,-6.00
2023-02-09T02:24:57.788Z,-5.90
2023-02-09T02:28:00.177Z,-5.90
2023-02-09T02:30:39.065Z,-5.90
2023-02-09T02:33:24.315Z,-5.80
2023-02-09T02:35:55.473Z,-5.80
2023-02-09T02:38:34.617Z,-5.80
2023-02-09T02:41:10.988Z,-5.90
2023-02-09T02:43:43.725Z,-5.80
2023-02-09T02:46:15.467Z,-5.80
2023-02-09T02:48:54.036Z,-6.00
2023-02-09T02:51:23.676Z,-6.10
2023-02-09T02:53:52.980Z,-6.30
2023-02-09T02:56:22.212Z,-6.40
2023-02-09T02:58:49.951Z,-6.40
2023-02-09T03:01:18.851Z,-6.40
2023-02-09T03:03:46.658Z,-6.40
2023-02-09T03:06:13.988Z,-6.40
2023-02-09T03:08:47.823Z,-6.30
2023-02-09T03:11:14.498Z,-6.30
2023-02-09T03:13:50.455Z,-6.20
2023-02-09T03:16:21.421Z,-6.20
2023-02-09T03:19:02.918Z,-6.10
2023-02-09T03:21:29.526Z,-6.00
2023-02-09T03:23:59.233Z,-6.00
2023-02-09T03:26:28.141Z,-6.00
2023-02-09T03:28:55.845Z,-5.90
2023-02-09T03:31:23.015Z,-5.90
2023-02-09T03:33:49.967Z,-5.90
2023-02-09T03:36:17.635Z,-5.90
2023-02-09T03:38:44.596Z,-6.00
2023-02-09T03:41:11.493Z,-5.90
2023-02-09T03:43:56.958Z,-5.90
2023-02-09T03:46:23.682Z,-5.90
2023-02-09T03:48:50.769Z,-5.90
2023-02-09T03:51:17.434Z,-5.80
2023-02-09T03:53:44.103Z,-5.90
2023-02-09T03:56:10.790Z,-5.90
2023-02-09T03:58:37.844Z,-3.80
2023-02-09T04:01:07.637Z,-5.90
2023-02-09T04:03:34.699Z,-6.00
2023-02-09T04:06:01.886Z,-6.00
2023-02-09T04:08:30.038Z,-6.00
2023-02-09T04:10:57.474Z,-6.10
2023-02-09T04:13:24.336Z,-6.20
2023-02-09T04:15:51.194Z,-6.30
2023-02-09T04:18:17.989Z,-6.30
2023-02-09T04:20:44.866Z,-6.30
2023-02-09T04:23:11.783Z,-6.40
2023-02-09T04:25:38.402Z,-6.40
2023-02-09T04:28:05.255Z,-6.30
2023-02-09T04:30:31.967Z,-6.20
2023-02-09T04:32:58.711Z,-6.00
2023-02-09T04:35:25.456Z,-5.90
2023-02-09T04:37:52.097Z,-2.90
2023-02-09T04:40:18.775Z,-5.70
2023-02-09T04:42:46.122Z,-5.70
2023-02-09T04:45:12.794Z,-5.80
2023-02-09T04:47:39.452Z,-6.00
2023-02-09T04:50:06.183Z,-6.10
2023-02-09T04:52:32.806Z,-6.30
2023-02-09T04:54:59.448Z,-6.40
2023-02-09T04:57:44.802Z,-6.50
2023-02-09T05:00:11.841Z,-6.70
2023-02-09T05:02:38.486Z,-6.70
2023-02-09T05:05:05.369Z,-6.70
2023-02-09T05:07:31.967Z,-6.80
2023-02-09T05:09:58.617Z,-6.90
2023-02-09T05:12:25.234Z,-6.90
2023-02-09T05:14:51.883Z,-6.90
2023-02-09T05:17:21.135Z,-6.90
2023-02-09T05:19:48.247Z,-6.90
2023-02-09T05:22:14.910Z,-7.00
2023-02-09T05:24:41.567Z,-7.00
2023-02-09T05:27:08.230Z,-7.00
2023-02-09T05:29:34.958Z,-7.00
2023-02-09T05:32:01.642Z,-7.00
2023-02-09T05:34:28.414Z,-7.10
2023-02-09T05:36:55.119Z,-7.10
2023-02-09T05:39:21.734Z,-7.10
2023-02-09T05:42:07.117Z,-7.20
2023-02-09T05:44:33.781Z,-7.20
2023-02-09T05:47:00.437Z,-7.20
2023-02-09T05:49:27.148Z,-7.20
2023-02-09T05:51:53.722Z,-7.10
2023-02-09T05:54:20.398Z,-7.10
2023-02-09T05:56:47.930Z,-7.10
2023-02-09T05:59:14.555Z,-7.20
2023-02-09T06:01:41.347Z,-7.20
2023-02-09T06:04:09.163Z,-7.30
2023-02-09T06:06:35.901Z,-7.20
2023-02-09T06:09:03.140Z,-7.30
2023-02-09T06:11:29.778Z,-7.30
2023-02-09T06:13:56.522Z,-7.30
2023-02-09T06:16:23.320Z,-7.30
2023-02-09T06:18:49.957Z,-7.30
2023-02-09T06:21:16.600Z,-7.30
2023-02-09T06:23:43.252Z,-6.10
2023-02-09T06:26:10.790Z,-7.20
2023-02-09T06:28:37.460Z,-7.20
2023-02-09T06:31:05.400Z,-7.20
2023-02-09T06:33:32.493Z,-7.20
2023-02-09T06:35:59.194Z,-7.20
2023-02-09T06:38:25.966Z,-7.20
2023-02-09T06:40:52.656Z,-7.30
2023-02-09T06:43:19.374Z,-4.70
2023-02-09T06:45:46.010Z,-7.30
2023-02-09T06:48:12.674Z,-7.30
2023-02-09T06:50:39.741Z,-7.10
2023-02-09T06:53:06.806Z,-7.10
2023-02-09T06:55:33.832Z,-7.10
2023-02-09T06:58:00.856Z,-7.10
2023-02-09T07:00:27.967Z,-7.10
2023-02-09T07:02:54.867Z,-7.10
2023-02-09T07:05:21.569Z,-7.10
2023-02-09T07:07:48.225Z,-7.10
2023-02-09T07:10:16.973Z,-7.00
2023-02-09T07:12:43.953Z,-6.80
2023-02-09T07:15:11.113Z,-6.80
2023-02-09T07:17:37.834Z,-6.80
2023-02-09T07:20:05.416Z,-6.80
2023-02-09T07:22:32.733Z,-6.90
2023-02-09T07:24:59.343Z,-6.60
2023-02-09T07:27:25.994Z,-6.60
2023-02-09T07:29:52.579Z,-6.60
2023-02-09T07:32:19.251Z,-6.60
2023-02-09T07:34:45.832Z,-6.50
2023-02-09T07:37:12.526Z,-6.30
2023-02-09T07:39:39.527Z,-6.30
2023-02-09T07:42:06.190Z,-6.20
2023-02-09T07:44:33.039Z,-6.20
2023-02-09T07:46:59.768Z,-6.00
2023-02-09T07:49:26.471Z,-5.90
2023-02-09T07:51:53.184Z,-5.70
2023-02-09T07:54:19.872Z,-5.60
2023-02-09T07:56:46.583Z,-5.40
2023-02-09T07:59:13.285Z,-5.20
2023-02-09T08:01:39.913Z,-5.10
2023-02-09T08:04:06.657Z,-5.00
2023-02-09T08:06:43.019Z,-5.00
2023-02-09T08:09:11.046Z,-4.90
2023-02-09T08:11:45.379Z,-4.80
2023-02-09T08:14:28.023Z,-4.70
2023-02-09T08:17:20.031Z,-4.70
2023-02-09T08:19:49.753Z,-4.60
2023-02-09T08:22:16.447Z,-4.60
2023-02-09T08:24:43.248Z,-4.50
2023-02-09T08:27:10.356Z,-4.50
2023-02-09T08:29:37.011Z,-4.40
2023-02-09T08:32:03.795Z,-0.60
2023-02-09T08:34:30.518Z,-4.30
2023-02-09T08:36:57.116Z,-4.20
2023-02-09T08:39:23.745Z,-4.00
2023-02-09T08:41:50.427Z,-4.00
2023-02-09T08:44:17.090Z,-4.00
2023-02-09T08:46:43.884Z,-3.90
2023-02-09T08:49:10.710Z,-3.80
2023-02-09T08:51:37.525Z,-3.70
2023-02-09T08:54:04.234Z,-3.60
2023-02-09T08:56:30.880Z,-0.70
2023-02-09T08:58:57.598Z,-3.50
2023-02-09T09:01:24.291Z,-3.50
2023-02-09T09:03:51.063Z,-3.50
2023-02-09T09:06:17.819Z,-3.40
2023-02-09T09:08:44.480Z,-3.40
2023-02-09T09:11:13.272Z,-3.30
2023-02-09T09:13:43.409Z,-3.20
2023-02-09T09:16:14.886Z,-3.20
2023-02-09T09:18:41.550Z,-3.20
2023-02-09T09:21:08.179Z,-3.00
2023-02-09T09:23:34.886Z,-2.90
2023-02-09T09:26:02.306Z,-2.70
2023-02-09T09:28:29.263Z,-2.70
2023-02-09T09:30:56.307Z,-2.60
2023-02-09T09:33:23.005Z,-2.60
2023-02-09T09:35:49.677Z,-2.50
2023-02-09T09:38:16.393Z,-2.40
2023-02-09T09:40:44.780Z,-2.30
2023-02-09T09:43:21.775Z,-2.20
2023-02-09T09:45:49.034Z,-2.30
2023-02-09T09:48:23.355Z,-2.20
2023-02-09T09:50:51.630Z,-2.20
2023-02-09T09:53:25.351Z,-2.20
2023-02-09T09:55:53.418Z,-2.20
2023-02-09T09:58:20.124Z,-2.20
2023-02-09T10:00:47.585Z,-2.10
2023-02-09T10:03:15.812Z,-1.90
2023-02-09T10:05:43.551Z,-1.90
2023-02-09T10:08:10.402Z,-1.80
2023-02-09T10:10:57.271Z,-1.80
2023-02-09T10:13:25.770Z,-1.70
2023-02-09T10:15:56.283Z,-1.50
2023-02-09T10:18:25.542Z,-1.50
2023-02-09T10:20:54.479Z,-1.40
2023-02-09T10:23:22.824Z,-1.30
2023-02-09T10:25:52.954Z,-1.20
2023-02-09T10:28:20.744Z,-1.20
2023-02-09T10:30:47.621Z,-1.20
2023-02-09T10:33:15.524Z,-1.10
2023-02-09T10:35:44.663Z,-1.00
2023-02-09T10:38:19.190Z,-0.90
2023-02-09T10:40:47.664Z,-0.90
2023-02-09T10:43:20.209Z,-0.80
2023-02-09T10:45:48.571Z,-0.70
2023-02-09T10:48:18.997Z,-0.50
2023-02-09T10:50:57.310Z,-0.40
2023-02-09T10:53:27.005Z,-0.50
2023-02-09T10:56:07.603Z,-0.40
2023-02-09T10:58:35.909Z,-0.30
2023-02-09T11:01:08.706Z,-0.10
2023-02-09T11:03:36.682Z,0.00
2023-02-09T11:06:03.427Z,0.20
2023-02-09T11:08:41.678Z,0.10
2023-02-09T11:11:08.345Z,0.10
2023-02-09T11:13:35.363Z,0.30
2023-02-09T11:16:08.077Z,0.40
2023-02-09T11:18:35.310Z,0.40
2023-02-09T11:21:29.241Z,0.50
2023-02-09T11:23:59.843Z,0.60
2023-02-09T11:26:32.589Z,0.70
2023-02-09T11:29:02.261Z,0.70
2023-02-09T11:31:46.507Z,0.80
2023-02-09T11:34:26.304Z,0.90
2023-02-09T11:36:53.148Z,0.90
2023-02-09T11:39:22.751Z,1.00
2023-02-09T11:42:11.170Z,1.10
2023-02-09T11:44:41.366Z,1.20
2023-02-09T11:47:12.375Z,1.30
2023-02-09T11:49:45.457Z,1.40
2023-02-09T11:52:15.347Z,1.40
2023-02-09T11:54:47.596Z,1.40
2023-02-09T11:57:22.627Z,1.50
2023-02-09T11:59:56.424Z,1.50
2023-02-09T12:02:34.638Z,1.60
2023-02-09T12:05:02.247Z,1.60
2023-02-09T12:07:33.124Z,1.70
2023-02-09T12:10:18.647Z,1.70
2023-02-09T12:13:01.442Z,1.70
2023-02-09T12:15:34.095Z,1.70
2023-02-09T12:18:02.327Z,1.80
2023-02-09T12:20:46.374Z,1.90
2023-02-09T12:23:24.474Z,1.90
2023-02-09T12:25:51.643Z,2.00
2023-02-09T12:28:24.635Z,5.30
2023-02-09T12:30:51.369Z,2.10
2023-02-09T12:33:17.996Z,2.20
2023-02-09T12:35:58.032Z,2.20
2023-02-09T12:38:25.206Z,2.20
2023-02-09T12:41:02.855Z,4.30
2023-02-09T12:43:30.806Z,2.20
2023-02-09T12:46:11.692Z,2.30
2023-02-09T12:48:53.690Z,2.30
2023-02-09T12:51:35.660Z,2.30
2023-02-09T12:54:22.232Z,2.30
2023-02-09T12:56:48.916Z,2.30
2023-02-09T12:59:17.085Z,2.30
2023-02-09T13:02:02.763Z,2.40
2023-02-09T13:04:32.067Z,2.40
2023-02-09T13:06:58.851Z,2.40
2023-02-09T13:09:28.078Z,2.50
2023-02-09T13:12:05.732Z,2.50
2023-02-09T13:14:32.710Z,2.60
2023-02-09T13:17:02.366Z,2.70
2023-02-09T13:19:55.451Z,2.60
2023-02-09T13:22:29.376Z,2.60
2023-02-09T13:25:02.173Z,2.70
2023-02-09T13:27:29.266Z,2.70
2023-02-09T13:29:57.476Z,2.70
2023-02-09T13:32:35.072Z,2.80
2023-02-09T13:35:01.772Z,0.50
2023-02-09T13:37:28.403Z,2.80
2023-02-09T13:39:57.687Z,2.80
2023-02-09T13:42:25.618Z,2.80
2023-02-09T13:44:53.737Z,2.80
2023-02-09T13:47:20.548Z,2.80
2023-02-09T13:49:59.816Z,2.80
2023-02-09T13:52:27.076Z,2.80
2023-02-09T13:54:53.929Z,2.80
2023-02-09T13:57:37.080Z,2.80
2023-02-09T14:00:16.140Z,2.80
2023-02-09T14:02:45.707Z,2.80
2023-02-09T14:05:20.121Z,2.80
2023-02-09T14:07:47.000Z,6.00
2023-02-09T14:10:14.814Z,2.90
2023-02-09T14:12:52.831Z,2.90
2023-02-09T14:15:40.477Z,3.00
2023-02-09T14:18:39.603Z,3.00
2023-02-09T14:21:15.500Z,2.90
2023-02-09T14:23:46.573Z,2.90
2023-02-09T14:26:22.527Z,2.90
2023-02-09T14:28:54.112Z,2.90
2023-02-09T14:31:22.431Z,2.90
2023-02-09T14:33:49.854Z,3.00
2023-02-09T14:36:22.816Z,5.50
2023-02-09T14:38:50.763Z,2.90
2023-02-09T14:41:23.484Z,3.00
2023-02-09T14:43:57.924Z,3.00
2023-02-09T14:46:24.619Z,3.10
2023-02-09T14:48:55.496Z,3.20
2023-02-09T14:51:22.976Z,3.30
2023-02-09T14:53:49.925Z,3.20
2023-02-09T14:56:26.299Z,3.30
2023-02-09T14:58:53.067Z,3.30
2023-02-09T15:01:19.898Z,3.40
2023-02-09T15:03:46.598Z,3.40
2023-02-09T15:06:14.096Z,3.30
2023-02-09T15:08:41.032Z,3.30
2023-02-09T15:11:27.386Z,3.30
2023-02-09T15:13:57.368Z,3.30
2023-02-09T15:16:24.168Z,3.20
2023-02-09T15:18:51.234Z,3.10
2023-02-09T15:21:18.000Z,3.20
2023-02-09T15:23:44.661Z,3.10
2023-02-09T15:26:16.101Z,4.70
2023-02-09T15:28:42.921Z,3.00
2023-02-09T15:31:13.352Z,3.00
2023-02-09T15:33:41.103Z,3.00
2023-02-09T15:36:08.361Z,2.90
2023-02-09T15:38:36.182Z,2.80
2023-02-09T15:41:21.393Z,2.80
2023-02-09T15:44:06.818Z,2.80
2023-02-09T15:46:52.165Z,2.80
2023-02-09T15:49:19.155Z,2.70
2023-02-09T15:51:45.892Z,2.70
2023-02-09T15:54:16.664Z,2.70
2023-02-09T15:56:43.599Z,2.70
2023-02-09T15:59:20.967Z,2.60
2023-02-09T16:01:48.208Z,2.60
2023-02-09T16:04:15.182Z,2.60
2023-02-09T16:06:46.588Z,2.50
2023-02-09T16:09:40.908Z,2.40
2023-02-09T16:12:10.493Z,2.40
2023-02-09T16:14:37.189Z,2.30
2023-02-09T16:17:03.911Z,2.30
2023-02-09T16:19:30.795Z,4.80
2023-02-09T16:21:58.481Z,2.10
2023-02-09T16:24:39.848Z,2.10
2023-02-09T16:27:36.026Z,2.00
2023-02-09T16:30:02.707Z,1.90
2023-02-09T16:32:29.362Z,3.40
2023-02-09T16:35:04.560Z,1.90
2023-02-09T16:37:37.748Z,1.80
2023-02-09T16:40:08.465Z,1.60
2023-02-09T16:42:35.117Z,1.40
2023-02-09T16:45:01.982Z,1.40
2023-02-09T16:47:28.627Z,1.30
2023-02-09T16:50:00.455Z,1.20
2023-02-09T16:52:27.612Z,1.10
2023-02-09T16:54:58.906Z,1.00
2023-02-09T16:57:26.921Z,0.80
2023-02-09T16:59:54.192Z,0.80
2023-02-09T17:02:29.996Z,0.70
2023-02-09T17:04:58.607Z,0.60
2023-02-09T17:07:30.217Z,0.60
2023-02-09T17:09:57.565Z,0.50
2023-02-09T17:12:24.276Z,0.40
2023-02-09T17:14:50.923Z,0.40
2023-02-09T17:17:18.764Z,0.30
2023-02-09T17:19:48.118Z,0.30
2023-02-09T17:22:15.413Z,0.20
2023-02-09T17:24:42.110Z,0.10
2023-02-09T17:27:09.583Z,0.10
2023-02-09T17:29:36.297Z,0.00
2023-02-09T17:32:03.573Z,0.00
2023-02-09T17:34:30.336Z,-0.10
2023-02-09T17:36:57.530Z,0.90
2023-02-09T17:39:24.382Z,0.20
2023-02-09T17:41:51.046Z,-0.20
2023-02-09T17:44:31.914Z,-2.30
2023-02-09T17:47:04.569Z,-0.40
2023-02-09T17:49:32.302Z,-0.50
2023-02-09T17:51:58.933Z,-0.50
2023-02-09T17:54:25.773Z,-0.60
2023-02-09T17:56:52.448Z,-0.70
2023-02-09T17:59:20.429Z,-0.70
2023-02-09T18:01:50.174Z,-0.70
2023-02-09T18:04:21.602Z,-0.70
2023-02-09T18:06:48.387Z,-0.80
2023-02-09T18:09:15.117Z,-0.80
2023-02-09T18:11:44.942Z,-0.80
2023-02-09T18:14:15.360Z,-0.90
2023-02-09T18:16:42.798Z,-0.90
2023-02-09T18:19:10.473Z,0.80
2023-02-09T18:21:37.561Z,-0.90
2023-02-09T18:24:04.708Z,-1.00
2023-02-09T18:26:31.467Z,-1.10
2023-02-09T18:28:58.167Z,-1.10
2023-02-09T18:31:24.802Z,-1.20
2023-02-09T18:33:51.528Z,-1.30
2023-02-09T18:36:18.258Z,-1.30
2023-02-09T18:38:44.946Z,-1.40
2023-02-09T18:41:14.628Z,-0.20
2023-02-09T18:43:41.455Z,-1.40
2023-02-09T18:46:08.180Z,-1.50
2023-02-09T18:48:35.280Z,-1.50
2023-02-09T18:51:01.885Z,-1.50
2023-02-09T18:53:28.555Z,-1.50
2023-02-09T18:55:55.133Z,-1.60
2023-02-09T18:58:21.797Z,-1.60
2023-02-09T19:00:48.485Z,-1.70
2023-02-09T19:03:17.745Z,-1.80
2023-02-09T19:05:44.671Z,-1.90
2023-02-09T19:08:11.636Z,-2.00
2023-02-09T19:10:38.991Z,-2.00
2023-02-09T19:13:05.714Z,-2.00
2023-02-09T19:15:33.177Z,-2.00
2023-02-09T19:18:00.551Z,-2.10
2023-02-09T19:20:28.291Z,-1.70
2023-02-09T19:22:55.227Z,-2.10
2023-02-09T19:25:22.938Z,-2.20
2023-02-09T19:27:49.749Z,-2.20
2023-02-09T19:30:18.106Z,-2.20
2023-02-09T19:32:44.776Z,-1.30
2023-02-09T19:35:11.561Z,-2.30
2023-02-09T19:37:40.039Z,-2.30
2023-02-09T19:40:17.746Z,-2.30
2023-02-09T19:42:44.446Z,-2.40
2023-02-09T19:45:11.127Z,-2.40
2023-02-09T19:47:37.904Z,-2.40
2023-02-09T19:50:05.267Z,-2.30
2023-02-09T19:52:31.907Z,-2.40
2023-02-09T19:54:58.652Z,-2.30
2023-02-09T19:57:25.263Z,-2.40
2023-02-09T19:59:53.033Z,-2.30
2023-02-09T20:02:19.701Z,-2.30
2023-02-09T20:04:46.423Z,-2.30
2023-02-09T20:07:14.088Z,-2.20
2023-02-09T20:09:40.983Z,-2.30
2023-02-09T20:12:07.669Z,-2.40
2023-02-09T20:14:34.318Z,-2.00
2023-02-09T20:17:01.001Z,-2.50
2023-02-09T20:19:27.743Z,-2.60
2023-02-09T20:21:54.427Z,-2.70
2023-02-09T20:24:21.159Z,-2.60
2023-02-09T20:26:48.172Z,-2.70
2023-02-09T20:29:16.873Z,-2.70
2023-02-09T20:31:43.984Z,-2.70
2023-02-09T20:34:13.355Z,-2.80
2023-02-09T20:36:41.460Z,-2.80
2023-02-09T20:39:13.283Z,-2.90
2023-02-09T20:42:00.118Z,-0.80
2023-02-09T20:44:45.656Z,-2.90
2023-02-09T20:47:12.302Z,-3.00
2023-02-09T20:49:40.591Z,-3.00
2023-02-09T20:52:07.757Z,-3.00
2023-02-09T20:54:34.588Z,-3.00
2023-02-09T20:57:01.226Z,-3.00
2023-02-09T20:59:27.972Z,-1.50
2023-02-09T21:01:54.666Z,-3.10
2023-02-09T21:04:21.379Z,-3.20
2023-02-09T21:06:48.347Z,-1.20
2023-02-09T21:09:15.266Z,-3.20
2023-02-09T21:11:42.279Z,-3.20
2023-02-09T21:14:21.574Z,-3.30
2023-02-09T21:16:56.158Z,-3.40
2023-02-09T21:19:23.953Z,-3.40
2023-02-09T21:21:50.755Z,-3.40
2023-02-09T21:24:17.935Z,-3.50
2023-02-09T21:26:44.634Z,-3.40
2023-02-09T21:29:13.218Z,-1.10
2023-02-09T21:31:39.923Z,-2.60
2023-02-09T21:34:06.687Z,-3.30
2023-02-09T21:36:33.359Z,-3.30
2023-02-09T21:39:00.081Z,-3.30
2023-02-09T21:41:45.463Z,-2.60
2023-02-09T21:44:15.351Z,-3.30
2023-02-09T21:46:42.176Z,-3.30
2023-02-09T21:49:10.202Z,-3.30
2023-02-09T21:51:36.962Z,-3.30
2023-02-09T21:54:03.894Z,-3.30
2023-02-09T21:56:30.657Z,-4.60
2023-02-09T21:58:57.326Z,-3.30
2023-02-09T22:01:24.011Z,-3.20
2023-02-09T22:03:57.151Z,-3.20
2023-02-09T22:06:25.088Z,-3.20
2023-02-09T22:08:52.242Z,-3.20
2023-02-09T22:11:18.936Z,-3.30
2023-02-09T22:13:45.666Z,-3.40
2023-02-09T22:16:17.220Z,-3.50
2023-02-09T22:18:43.956Z,-3.60
2023-02-09T22:21:10.623Z,-3.70
2023-02-09T22:23:37.343Z,-3.80
2023-02-09T22:26:05.027Z,-3.80
2023-02-09T22:28:32.614Z,-3.90
2023-02-09T22:31:06.967Z,-3.90
2023-02-09T22:33:33.957Z,-3.90
2023-02-09T22:36:03.906Z,-4.00
2023-02-09T22:38:30.592Z,-4.00
2023-02-09T22:40:57.330Z,-3.90
2023-02-09T22:43:23.936Z,-4.00
2023-02-09T22:45:54.742Z,-3.20
2023-02-09T22:48:21.400Z,-4.00
2023-02-09T22:50:48.181Z,-4.00
2023-02-09T22:53:14.834Z,-4.00
2023-02-09T22:55:41.474Z,-4.00
2023-02-09T22:58:08.127Z,-4.10
2023-02-09T23:00:34.828Z,-4.10
2023-02-09T23:03:01.508Z,-4.20
2023-02-09T23:05:28.182Z,-4.20
2023-02-09T23:07:54.821Z,-4.30
2023-02-09T23:10:22.554Z,-4.30
2023-02-09T23:12:49.122Z,-4.30
2023-02-09T23:15:15.942Z,-4.30
2023-02-09T23:17:42.519Z,-4.40
2023-02-09T23:20:09.412Z,-1.70
2023-02-09T23:22:36.017Z,-4.40
2023-02-09T23:25:02.744Z,-2.40
2023-02-09T23:27:29.421Z,-2.30
2023-02-09T23:29:56.150Z,-4.50
2023-02-09T23:32:22.809Z,-4.50
2023-02-09T23:34:49.677Z,-4.60
2023-02-09T23:37:19.095Z,-2.00
2023-02-09T23:39:55.473Z,-4.60
2023-02-09T23:42:22.149Z,-4.60
2023-02-09T23:44:48.981Z,-4.60
2023-02-09T23:47:15.831Z,-4.60
2023-02-09T23:49:42.513Z,-4.50
2023-02-09T23:52:09.204Z,-3.00
2023-02-09T23:54:35.829Z,-4.50
2023-02-09T23:57:02.575Z,-4.40
2023-02-09T23:59:29.271Z,-4.40
